Latest Weather Observations for Hindmarsh Island

IDS60801

Issued at 4:21 am CDT Tuesday 13 November 2018 (issued every 10 minutes, with the page automatically refreshed every 10 minutes)

About weather observations | Map of weather stations | Latest weather observations for SA | Other Formats
Station Details ID: 023894 Name: HINDMARSH ISLAND AWS Lat: -35.52 Lon: 138.82 Height: 11.0 m
Data from the previous 72 hours. | See also: Recent months at Hindmarsh Island
Date/Time
CDT
Temp
°C
App
Temp
°C
Dew
Point
°C
Rel
Hum
%
Delta-T
°C
Wind Press
QNH
hPa
Press
MSL
hPa
Rain since
9am
mm
Dir  Spd
km/h
Gust
km/h
Spd
kts
Gust
kts
13/04:00am 20.5 18.0 13.5 64 4.0 W 19 24 10 13 1008.0 1008.0 0.0
13/03:30am 20.9 17.4 13.4 62 4.3 NNE 24 32 13 17 1006.9 1006.8 0.0
13/03:00am 20.6 16.8 13.6 64 4.0 N 26 33 14 18 1007.6 1007.5 0.0
13/02:30am 20.4 17.0 13.8 66 3.8 NNE 24 32 13 17 1007.4 1007.3 0.0
13/02:00am 20.4 17.1 14.1 67 3.6 NNE 24 32 13 17 1007.7 1007.6 0.0
13/01:30am 20.4 17.5 14.1 67 3.7 NNE 22 30 12 16 1008.3 1008.3 0.0
13/01:00am 20.1 17.3 14.2 69 3.4 NNE 22 26 12 14 1008.7 1008.7 0.0
13/12:30am 20.1 17.4 14.7 71 3.2 NNE 22 30 12 16 1009.2 1009.2 0.0
13/12:00am 20.2 17.3 15.2 73 3.0 NNE 24 35 13 19 1009.7 1009.7 0.0
 
Date/Time
CDT
Temp
°C
App
Temp
°C
Dew
Point
°C
Rel
Hum
%
Delta-T
°C
Wind Press
QNH
hPa
Press
MSL
hPa
Rain since
9am
mm
Dir  Spd
km/h
Gust
km/h
Spd
kts
Gust
kts
12/11:30pm 20.1 16.4 15.1 73 2.9 NNE 28 35 15 19 1009.9 1009.9 0.0
12/11:00pm 19.5 17.8 14.7 74 2.8 E 17 30 9 16 1010.1 1010.1 0.0
12/10:30pm 20.0 17.8 14.8 72 3.0 NNE 20 28 11 15 1010.9 1010.9 0.0
12/10:00pm 19.6 19.4 14.8 74 2.8 NE 9 15 5 8 1011.0 1011.0 0.0
12/09:30pm 19.6 19.1 14.8 74 2.8 N 11 17 6 9 1011.0 1011.0 0.0
12/09:00pm 19.5 18.5 14.7 74 2.8 NNW 13 17 7 9 1011.4 1011.4 0.0
12/08:30pm 19.2 18.3 14.9 76 2.5 E 13 19 7 10 1010.8 1010.8 0.0
12/08:00pm 19.1 18.3 15.0 77 2.4 SE 13 17 7 9 1011.1 1011.1 0.0
12/07:30pm 19.0 19.3 14.9 77 2.4 SE 7 11 4 6 1011.5 1011.5 0.0
12/07:00pm 19.0 17.4 15.1 78 2.3 S 17 20 9 11 1011.1 1011.1 0.0
12/06:30pm 19.3 17.4 15.2 77 2.4 S 19 24 10 13 1010.5 1010.5 0.0
12/06:00pm 19.8 17.2 15.0 74 2.8 SSW 22 30 12 16 1010.4 1010.4 0.0
12/05:30pm 20.1 16.8 14.9 72 3.1 SW 26 35 14 19 1010.0 1010.0 0.0
12/05:00pm 20.5 15.1 15.1 71 3.2 SSW 37 46 20 25 1009.9 1009.9 0.0
12/04:30pm 22.5 15.6 12.7 54 5.6 SW 41 70 22 38 1009.5 1009.5 0.0
12/04:28pm 23.4 17.5 11.1 46 6.9 WSW 33 70 18 38 1009.2 1009.2 0.0
12/04:26pm 26.2 20.1 8.2 32 9.7 W 30 57 16 31 1009.6 1009.6 0.0
12/04:24pm 31.6 25.2 0.9 14 15.0 WNW 24 50 13 27 1009.7 1009.7 0.0
12/04:00pm 32.3 25.7 -3.2 10 16.3 NW 22 35 12 19 1009.1 1009.1 0.0
12/03:30pm 32.7 25.0 -2.9 10 16.5 NW 28 43 15 23 1009.4 1009.4 0.0
12/03:20pm 33.0 25.0 -2.6 10 16.6 NW 30 48 16 26 1009.4 1009.4 0.0
12/03:00pm 32.6 23.6 -2.9 10 16.5 NW 35 48 19 26 1009.6 1009.6 0.0
12/02:30pm 34.5 26.4 -2.9 9 17.6 NW 30 50 16 27 1009.7 1009.7 0.0
12/02:00pm 33.5 25.7 -3.7 9 17.1 NNW 28 46 15 25 1010.2 1010.2 0.0
12/01:30pm 33.2 25.2 -2.5 10 16.7 NNW 30 48 16 26 1010.4 1010.4 0.0
12/01:11pm 33.4 25.4 -2.3 10 16.8 NNW 30 48 16 26 1010.6 1010.6 0.0
12/01:00pm 32.6 24.9 -2.9 10 16.4 NNW 28 43 15 23 1010.6 1010.6 0.0
12/12:30pm 32.9 25.6 -0.2 12 16.1 NNW 28 41 15 22 1011.2 1011.2 0.0
12/12:00pm 32.0 24.8 -2.1 11 15.9 NNW 26 43 14 23 1011.6 1011.6 0.0
12/11:30am 31.4 23.1 -1.4 12 15.5 NNW 32 46 17 25 1011.7 1011.7 0.0
12/11:06am 30.9 23.0 -1.8 12 15.2 NNW 30 48 16 26 1011.8 1011.8 0.0
12/11:00am 31.1 24.1 -0.5 13 15.1 NNW 26 37 14 20 1012.0 1012.0 0.0
12/10:30am 31.5 24.4 -1.3 12 15.5 N 26 37 14 20 1012.0 1012.0 0.0
12/10:00am 29.0 25.2 3.8 20 12.8 N 13 19 7 10 1012.2 1012.2 0.0
12/09:30am 25.2 22.1 5.4 28 10.1 N 11 17 6 9 1012.6 1012.6 0.0
12/09:00am 22.5 19.2 7.9 39 7.6 NNE 15 19 8 10 1012.4 1012.4 0.0
12/08:30am 20.8 16.5 7.8 43 6.7 NNE 20 26 11 14 1012.2 1012.2 0.0
12/08:00am 18.6 14.8 9.9 57 4.6 NNE 20 26 11 14 1012.3 1012.3 0.0
12/07:30am 17.9 13.9 9.0 56 4.6 NNE 20 26 11 14 1011.9 1011.9 0.0
12/07:00am 17.6 13.6 9.0 57 4.5 N 20 26 11 14 1012.3 1012.3 0.0
12/06:30am 17.2 13.2 9.1 59 4.2 N 20 26 11 14 1011.9 1011.9 0.0
12/06:00am 17.9 13.6 9.5 58 4.4 NNE 22 28 12 15 1011.8 1011.8 0.0
12/05:30am 17.9 13.4 8.7 55 4.8 NNE 22 26 12 14 1011.7 1011.7 0.0
12/05:00am 17.7 14.7 9.3 58 4.4 NNE 15 20 8 11 1012.0 1012.0 0.0
12/04:30am 18.3 14.6 10.2 59 4.3 NNE 20 24 11 13 1012.0 1012.0 0.0
12/04:00am 17.4 14.5 9.8 61 4.0 NNE 15 17 8 9 1012.3 1012.3 0.0
12/03:30am 16.4 15.3 10.7 69 3.0 N 7 9 4 5 1012.7 1012.7 0.0
12/03:00am 16.5 14.2 10.6 68 3.1 NNE 13 15 7 8 1012.8 1012.8 0.0
12/02:30am 16.6 14.8 10.7 68 3.1 NNE 11 13 6 7 1013.2 1013.2 0.0
12/02:00am 18.0 16.9 10.6 62 4.0 N 7 9 4 5 1014.0 1014.0 0.0
12/01:30am 17.6 16.0 10.2 62 3.9 N 9 13 5 7 1014.4 1014.4 0.0
12/01:00am 16.3 14.6 11.2 72 2.7 N 11 13 6 7 1014.7 1014.7 0.0
12/12:30am 16.6 15.7 11.3 71 2.9 N 7 9 4 5 1014.9 1014.9 0.0
12/12:00am 16.4 14.9 11.8 74 2.5 N 11 11 6 6 1015.3 1015.3 0.0
 
Date/Time
CDT
Temp
°C
App
Temp
°C
Dew
Point
°C
Rel
Hum
%
Delta-T
°C
Wind Press
QNH
hPa
Press
MSL
hPa
Rain since
9am
mm
Dir  Spd
km/h
Gust
km/h
Spd
kts
Gust
kts
11/11:30pm 16.5 15.6 12.7 78 2.1 N 9 11 5 6 1015.6 1015.6 0.0
11/11:00pm 16.6 16.1 12.8 78 2.1 NNW 7 9 4 5 1015.9 1015.9 0.0
11/10:30pm 16.9 16.6 13.2 79 2.1 WSW 7 9 4 5 1016.1 1016.1 0.0
11/10:00pm 16.8 15.3 13.1 79 2.1 WSW 13 15 7 8 1016.2 1016.2 0.0
11/09:30pm 16.7 14.4 13.0 79 2.1 SW 17 20 9 11 1016.2 1016.2 0.0
11/09:00pm 16.7 14.8 13.0 79 2.1 WSW 15 20 8 11 1015.9 1015.9 0.0
11/08:30pm 16.8 14.9 12.9 78 2.2 SW 15 17 8 9 1015.6 1015.6 0.0
11/08:00pm 17.2 15.3 12.9 76 2.4 SW 15 19 8 10 1015.4 1015.4 0.0
11/07:30pm 17.8 15.5 13.1 74 2.6 SW 17 19 9 10 1015.3 1015.3 0.0
11/07:00pm 18.8 16.9 13.0 69 3.3 SW 15 19 8 10 1015.1 1015.1 0.0
11/06:30pm 19.5 17.2 13.0 66 3.7 SSW 17 20 9 11 1014.9 1014.9 0.0
11/06:00pm 19.7 17.3 12.7 64 3.9 S 17 22 9 12 1015.0 1015.0 0.0
11/05:30pm 20.3 17.6 13.0 63 4.1 SSW 19 22 10 12 1015.3 1015.3 0.0
11/05:00pm 21.2 17.9 12.9 59 4.7 SE 22 28 12 15 1015.3 1015.3 0.0
11/04:30pm 20.8 16.4 12.8 60 4.5 SE 28 32 15 17 1015.2 1015.2 0.0
11/04:00pm 20.9 15.9 12.3 58 4.8 SE 30 33 16 18 1015.6 1015.6 0.0
11/03:30pm 20.9 15.3 11.5 55 5.2 SSE 32 35 17 19 1015.8 1015.8 0.0
11/03:00pm 21.8 16.9 12.6 56 5.2 SSE 30 33 16 18 1016.2 1016.2 0.0
11/02:30pm 21.8 16.8 12.1 54 5.5 SSE 30 33 16 18 1016.5 1016.5 0.0
11/02:00pm 21.8 17.0 12.9 57 5.1 SSE 30 37 16 20 1016.7 1016.7 0.0
11/01:30pm 21.6 16.5 13.2 59 4.8 SSE 32 35 17 19 1017.0 1017.0 0.0
11/01:07pm 22.4 19.0 12.4 53 5.7 SE 22 32 12 17 1017.1 1017.1 0.0
11/01:00pm 27.6 23.9 8.0 29 10.6 E 17 28 9 15 1017.4 1017.4 0.0
11/12:30pm 25.5 21.1 7.6 32 9.5 ESE 20 30 11 16 1017.9 1017.9 0.0
11/12:00pm 25.2 21.8 7.8 33 9.2 E 15 24 8 13 1018.6 1018.6 0.0
11/11:30am 22.8 20.1 8.9 41 7.4 NE 13 24 7 13 1019.0 1019.0 0.0
11/11:00am 22.0 19.1 9.5 45 6.7 NE 15 26 8 14 1019.4 1019.4 0.0
11/10:30am 20.6 17.1 8.6 46 6.3 ENE 17 24 9 13 1019.7 1019.7 0.0
11/10:00am 19.5 16.2 9.4 52 5.3 NE 17 24 9 13 1019.8 1019.8 0.0
11/09:30am 18.4 14.9 10.3 59 4.3 NE 19 24 10 13 1020.1 1020.1 0.0
11/09:00am 17.2 13.5 10.3 64 3.7 NE 20 28 11 15 1020.2 1020.2 0.0
11/08:30am 16.2 13.7 10.9 71 2.8 NE 15 19 8 10 1020.3 1020.3 0.0
11/08:00am 14.9 13.1 10.9 77 2.1 NNE 11 15 6 8 1020.5 1020.5 0.0
11/07:30am 13.8 11.2 10.6 81 1.7 NE 15 19 8 10 1020.6 1020.6 0.0
11/07:00am 12.2 10.1 9.8 85 1.2 ENE 11 13 6 7 1020.5 1020.5 0.0
11/06:30am 10.6 7.8 8.4 86 1.1 ENE 13 15 7 8 1020.5 1020.5 0.0
11/06:00am 10.8 8.0 8.6 86 1.1 ENE 13 15 7 8 1020.2 1020.2 0.0
11/05:30am 10.9 7.3 8.5 85 1.2 ENE 17 20 9 11 1019.8 1019.8 0.0
11/05:00am 11.5 8.8 8.9 84 1.3 E 13 15 7 8 1019.6 1019.6 0.0
11/04:30am 12.0 9.0 9.2 83 1.4 ENE 15 17 8 9 1019.4 1019.4 0.0
11/04:00am 12.2 9.6 9.4 83 1.4 ENE 13 17 7 9 1019.4 1019.4 0.0
11/03:30am 12.3 8.9 9.3 82 1.5 ENE 17 20 9 11 1019.5 1019.5 0.0
11/03:00am 12.7 10.2 9.7 82 1.5 NE 13 13 7 7 1019.6 1019.6 0.0
11/02:30am 12.5 9.1 9.3 81 1.6 ENE 17 17 9 9 1019.4 1019.4 0.0
11/02:00am 12.8 10.2 9.3 79 1.8 ENE 13 15 7 8 1019.6 1019.6 0.0
11/01:30am 13.2 10.6 9.5 78 1.9 ENE 13 13 7 7 1019.8 1019.8 0.0
11/01:00am 13.7 11.1 9.4 75 2.2 E 13 17 7 9 1020.0 1020.0 0.0
11/12:30am 15.3 11.9 10.7 74 2.4 SE 19 20 10 11 1020.4 1020.4 0.0
11/12:00am 15.2 11.8 10.4 73 2.5 SE 19 22 10 12 1020.3 1020.3 0.0
 
Date/Time
CDT
Temp
°C
App
Temp
°C
Dew
Point
°C
Rel
Hum
%
Delta-T
°C
Wind Press
QNH
hPa
Press
MSL
hPa
Rain since
9am
mm
Dir  Spd
km/h
Gust
km/h
Spd
kts
Gust
kts
10/11:30pm 15.3 11.8 10.3 72 2.6 SE 19 22 10 12 1020.3 1020.3 0.0
10/11:00pm 15.4 12.3 10.4 72 2.6 SSE 17 20 9 11 1020.6 1020.6 0.0
10/10:30pm 15.7 12.3 10.7 72 2.6 SSE 19 20 10 11 1020.6 1020.6 0.0
10/10:00pm 15.6 12.2 10.4 71 2.7 SSE 19 20 10 11 1020.2 1020.2 0.0
10/09:30pm 15.8 12.4 10.6 71 2.7 SSE 19 22 10 12 1020.0 1020.0 0.0
10/09:00pm 16.1 12.1 10.6 70 2.9 S 22 26 12 14 1019.8 1019.8 0.0
10/08:30pm 16.1 12.5 10.6 70 2.9 S 20 24 11 13 1019.4 1019.4 0.0
10/08:00pm 16.2 12.3 10.7 70 2.9 SSE 22 24 12 13 1019.2 1019.2 0.0
10/07:30pm 16.7 12.4 10.8 68 3.1 SSE 24 28 13 15 1018.9 1018.9 0.0
10/07:00pm 17.4 13.2 11.0 66 3.4 SSE 24 28 13 15 1018.8 1018.8 0.0
10/06:30pm 17.7 13.1 11.0 65 3.6 SSE 26 30 14 16 1018.5 1018.5 0.0
10/06:00pm 17.8 13.2 11.1 65 3.6 SSE 26 30 14 16 1018.3 1018.3 0.0
10/05:30pm 18.8 14.1 11.9 64 3.8 SSE 28 32 15 17 1018.2 1018.2 0.0
10/05:00pm 18.1 13.4 10.5 61 4.1 SSE 26 30 14 16 1018.3 1018.3 0.0
10/04:30pm 19.1 14.0 10.6 58 4.6 SSE 28 33 15 18 1018.3 1018.3 0.0
10/04:00pm 19.3 14.5 10.3 56 4.8 SSE 26 30 14 16 1018.3 1018.3 0.0
10/03:30pm 19.9 15.1 11.7 59 4.5 SSE 28 32 15 17 1018.4 1018.4 0.0
10/03:00pm 20.1 15.0 10.5 54 5.2 S 28 32 15 17 1018.4 1018.4 0.0
10/02:30pm 20.2 14.6 8.8 48 6.0 S 28 32 15 17 1018.4 1018.4 0.0
10/02:00pm 20.7 14.8 7.7 43 6.7 S 28 30 15 16 1018.5 1018.5 0.0
10/01:30pm 21.4 16.1 9.9 48 6.2 S 28 30 15 16 1018.7 1018.7 0.0
10/01:00pm 22.3 18.9 11.1 49 6.2 SSE 20 28 11 15 1018.6 1018.6 0.0
10/12:30pm 22.4 18.7 10.2 46 6.6 SSE 20 24 11 13 1018.7 1018.7 0.0
10/12:00pm 21.4 18.0 11.1 52 5.7 SSE 20 24 11 13 1019.1 1019.1 0.0
10/11:30am 21.2 17.9 11.0 52 5.6 SSE 19 24 10 13 1019.6 1019.6 0.0
10/11:00am 20.6 18.4 9.5 49 5.9 S 11 15 6 8 1020.1 1020.1 0.0
10/10:30am 19.8 17.8 8.8 49 5.7 NNE 9 17 5 9 1020.3 1020.3 0.0
10/10:00am 18.9 16.8 9.7 55 4.9 NNE 11 17 6 9 1020.3 1020.3 0.0
10/09:30am 17.8 15.0 9.9 60 4.2 NE 15 20 8 11 1020.5 1020.5 0.0
10/09:00am 16.7 13.9 10.1 65 3.5 NNE 15 20 8 11 1020.5 1020.5 0.0
10/08:30am 15.5 13.7 10.7 73 2.5 N 11 17 6 9 1020.4 1020.4 0.0
10/08:00am 13.9 11.6 10.3 79 1.9 N 13 15 7 8 1020.1 1020.1 0.0
10/07:30am 12.7 11.1 10.2 85 1.3 N 9 11 5 6 1019.8 1019.8 0.0
10/07:00am 11.7 9.5 9.4 86 1.2 N 11 13 6 7 1019.5 1019.5 0.0
10/06:30am 11.2 8.9 8.9 86 1.1 N 11 13 6 7 1019.2 1019.2 0.0
10/06:00am 11.3 9.0 9.0 86 1.1 NNW 11 11 6 6 1019.0 1019.0 0.0
10/05:30am 11.4 9.5 9.1 86 1.1 NNW 9 11 5 6 1018.6 1018.6 0.0
10/05:00am 11.7 9.9 9.4 86 1.2 NNW 9 11 5 6 1018.5 1018.5 0.0
10/04:30am 11.7 9.9 9.4 86 1.2 NNW 9 9 5 5 1018.5 1018.5 0.0

Other Formats:

Comma delimited format used in spreadsheet applications
http://www.bom.gov.au/fwo/IDS60801/IDS60801.94677.axf

JavaScript Object Notation format (JSON) in row-major order
http://www.bom.gov.au/fwo/IDS60801/IDS60801.94677.json